createdAt,value
2023-06-23T00:01:47.939Z,100266.25
2023-06-23T00:04:15.128Z,100286.19
2023-06-23T00:06:42.130Z,100280.22
2023-06-23T00:09:15.176Z,100285.50
2023-06-23T00:11:46.994Z,100274.16
2023-06-23T00:14:14.103Z,100286.84
2023-06-23T00:16:41.282Z,100292.34
2023-06-23T00:19:08.297Z,100300.59
2023-06-23T00:21:35.441Z,100302.34
2023-06-23T00:24:02.568Z,100312.16
2023-06-23T00:26:29.585Z,100325.19
2023-06-23T00:28:56.764Z,100336.63
2023-06-23T00:31:23.731Z,100343.94
2023-06-23T00:33:50.785Z,100354.13
2023-06-23T00:36:17.792Z,100370.56
2023-06-23T00:38:45.865Z,100385.63
2023-06-23T00:41:13.099Z,100394.75
2023-06-23T00:43:40.486Z,100415.00
2023-06-23T00:46:19.461Z,100411.97
2023-06-23T00:48:46.558Z,100427.88
2023-06-23T00:51:15.869Z,100438.34
2023-06-23T00:53:49.503Z,100437.25
2023-06-23T00:56:18.847Z,100435.88
2023-06-23T00:58:47.403Z,100438.44
2023-06-23T01:01:14.492Z,100442.84
2023-06-23T01:03:42.151Z,100443.69
2023-06-23T01:06:42.684Z,100441.81
2023-06-23T01:09:41.383Z,100450.31
2023-06-23T01:12:35.669Z,100446.31
2023-06-23T01:15:22.459Z,100450.31
2023-06-23T01:18:11.590Z,100455.34
2023-06-23T01:20:41.583Z,100459.09
2023-06-23T01:23:40.168Z,100463.09
2023-06-23T01:26:24.230Z,100469.63
2023-06-23T01:28:59.559Z,100466.78
2023-06-23T01:31:45.871Z,100472.88
2023-06-23T01:34:24.712Z,100476.16
2023-06-23T01:37:12.347Z,100476.97
2023-06-23T01:39:44.537Z,100470.28
2023-06-23T01:42:17.599Z,100465.94
2023-06-23T01:44:51.155Z,100466.22
2023-06-23T01:47:21.094Z,100460.28
2023-06-23T01:49:49.996Z,100451.34
2023-06-23T01:52:18.533Z,100448.44
2023-06-23T01:54:48.604Z,100444.78
2023-06-23T01:57:16.835Z,100438.88
2023-06-23T01:59:45.462Z,100441.94
2023-06-23T02:02:16.661Z,100444.22
2023-06-23T02:04:46.624Z,100446.66
2023-06-23T02:07:16.444Z,100456.22
2023-06-23T02:09:45.327Z,100449.72
2023-06-23T02:12:13.826Z,100448.50
2023-06-23T02:14:45.070Z,100454.59
2023-06-23T02:17:12.956Z,100449.72
2023-06-23T02:19:44.227Z,100452.56
2023-06-23T02:22:15.458Z,100447.34
2023-06-23T02:24:43.269Z,100457.50
2023-06-23T02:27:10.817Z,100463.53
2023-06-23T02:29:41.942Z,100469.69
2023-06-23T02:32:10.107Z,100471.69
2023-06-23T02:34:37.027Z,100467.59
2023-06-23T02:37:10.200Z,100459.53
2023-06-23T02:39:43.868Z,100472.09
2023-06-23T02:42:14.121Z,100469.00
2023-06-23T02:44:50.560Z,100478.53
2023-06-23T02:47:20.399Z,100486.19
2023-06-23T02:49:50.204Z,100496.00
2023-06-23T02:52:18.732Z,100499.41
2023-06-23T02:54:51.091Z,100504.28
2023-06-23T02:57:20.992Z,100501.19
2023-06-23T02:59:51.109Z,100511.72
2023-06-23T03:02:19.503Z,100513.94
2023-06-23T03:04:47.507Z,100514.63
2023-06-23T03:07:16.130Z,100519.50
2023-06-23T03:09:46.541Z,100516.16
2023-06-23T03:12:13.769Z,100517.69
2023-06-23T03:14:41.045Z,100518.94
2023-06-23T03:17:23.564Z,100524.38
2023-06-23T03:20:09.727Z,100521.56
2023-06-23T03:23:04.156Z,100527.53
2023-06-23T03:25:33.389Z,100534.28
2023-06-23T03:28:06.396Z,100535.19
2023-06-23T03:30:47.271Z,100531.97
2023-06-23T03:33:34.024Z,100539.38
2023-06-23T03:36:18.314Z,100542.03
2023-06-23T03:38:51.117Z,100532.66
2023-06-23T03:41:18.206Z,100546.78
2023-06-23T03:43:53.411Z,100551.31
2023-06-23T03:46:36.987Z,100549.50
2023-06-23T03:49:08.030Z,100556.59
2023-06-23T03:51:38.084Z,100561.72
2023-06-23T03:54:06.393Z,100567.66
2023-06-23T03:56:36.353Z,100576.19
2023-06-23T03:59:04.912Z,100580.66
2023-06-23T04:01:34.094Z,100578.03
2023-06-23T04:04:04.773Z,100576.66
2023-06-23T04:06:34.304Z,100585.31
2023-06-23T04:09:02.896Z,100580.50
2023-06-23T04:11:31.798Z,100579.56
2023-06-23T04:13:59.917Z,100583.72
2023-06-23T04:16:28.160Z,100589.19
2023-06-23T04:18:56.826Z,100587.63
2023-06-23T04:21:25.064Z,100588.16
2023-06-23T04:23:54.448Z,100592.22
2023-06-23T04:26:21.488Z,100596.31
2023-06-23T04:28:50.481Z,100602.66
2023-06-23T04:31:19.578Z,100607.72
2023-06-23T04:33:46.618Z,100598.78
2023-06-23T04:36:21.184Z,100607.97
2023-06-23T04:38:56.596Z,100612.84
2023-06-23T04:41:27.417Z,100618.72
2023-06-23T04:43:55.960Z,100639.06
2023-06-23T04:46:30.331Z,100637.22
2023-06-23T04:49:04.236Z,100634.94
2023-06-23T04:51:36.662Z,100639.13
2023-06-23T04:54:22.444Z,100639.13
2023-06-23T04:57:00.805Z,100642.81
2023-06-23T04:59:35.339Z,100645.88
2023-06-23T05:02:04.142Z,100655.03
2023-06-23T05:04:35.962Z,100653.78
2023-06-23T05:07:04.484Z,100654.22
2023-06-23T05:09:34.862Z,100659.94
2023-06-23T05:12:04.849Z,100658.72
2023-06-23T05:14:33.690Z,100665.22
2023-06-23T05:17:02.232Z,100658.69
2023-06-23T05:19:31.586Z,100659.94
2023-06-23T05:22:00.627Z,100667.63
2023-06-23T05:24:29.993Z,100671.13
2023-06-23T05:27:00.774Z,100683.28
2023-06-23T05:29:28.432Z,100679.47
2023-06-23T05:31:57.421Z,100684.34
2023-06-23T05:34:26.200Z,100682.72
2023-06-23T05:36:54.963Z,100691.84
2023-06-23T05:39:24.601Z,100693.91
2023-06-23T05:41:51.649Z,100703.50
2023-06-23T05:44:18.670Z,100694.75
2023-06-23T05:46:47.848Z,100691.50
2023-06-23T05:49:19.285Z,100697.25
2023-06-23T05:52:00.368Z,100691.72
2023-06-23T05:54:30.865Z,100683.59
2023-06-23T05:57:02.033Z,100681.56
2023-06-23T05:59:42.738Z,100675.28
2023-06-23T06:02:19.867Z,100674.03
2023-06-23T06:04:50.537Z,100681.56
2023-06-23T06:07:19.725Z,100683.19
2023-06-23T06:09:47.637Z,100707.03
2023-06-23T06:12:15.336Z,100703.16
2023-06-23T06:14:44.602Z,100698.88
2023-06-23T06:17:14.009Z,100714.69
2023-06-23T06:19:42.948Z,100713.03
2023-06-23T06:22:11.403Z,100718.09
2023-06-23T06:24:40.153Z,100722.56
2023-06-23T06:27:09.440Z,100730.50
2023-06-23T06:29:38.365Z,100726.22
2023-06-23T06:32:07.472Z,100742.91
2023-06-23T06:34:35.187Z,100737.00
2023-06-23T06:37:03.674Z,100744.13
2023-06-23T06:39:32.147Z,100738.44
2023-06-23T06:41:59.475Z,100744.97
2023-06-23T06:44:26.583Z,100735.91
2023-06-23T06:46:54.767Z,100741.03
2023-06-23T06:49:24.421Z,100739.19
2023-06-23T06:51:53.186Z,100732.88
2023-06-23T06:54:21.013Z,100736.94
2023-06-23T06:56:48.334Z,100736.28
2023-06-23T06:59:15.802Z,100737.72
2023-06-23T07:01:44.077Z,100739.34
2023-06-23T07:04:13.693Z,100743.13
2023-06-23T07:06:41.452Z,100747.59
2023-06-23T07:09:08.849Z,100752.47
2023-06-23T07:11:37.062Z,100757.16
2023-06-23T07:14:05.576Z,100762.47
2023-06-23T07:16:35.011Z,100758.41
2023-06-23T07:19:02.061Z,100761.13
2023-06-23T07:21:29.530Z,100765.53
2023-06-23T07:23:56.584Z,100778.91
2023-06-23T07:26:23.505Z,100791.50
2023-06-23T07:28:50.582Z,100785.78
2023-06-23T07:31:17.666Z,100785.00
2023-06-23T07:33:44.747Z,100786.22
2023-06-23T07:36:11.810Z,100787.66
2023-06-23T07:38:38.804Z,100793.53
2023-06-23T07:41:07.131Z,100812.19
2023-06-23T07:43:34.179Z,100799.28
2023-06-23T07:46:01.388Z,100801.47
2023-06-23T07:48:28.498Z,100803.91
2023-06-23T07:50:55.470Z,100810.69
2023-06-23T07:53:23.833Z,100817.25
2023-06-23T07:55:51.005Z,100816.94
2023-06-23T07:58:18.032Z,100806.56
2023-06-23T08:00:45.167Z,100813.25
2023-06-23T08:03:12.602Z,100802.06
2023-06-23T08:05:39.783Z,100804.53
2023-06-23T08:08:07.076Z,100804.66
2023-06-23T08:10:34.202Z,100808.69
2023-06-23T08:13:01.236Z,100812.63
2023-06-23T08:15:28.619Z,100811.50
2023-06-23T08:17:56.437Z,100819.09
2023-06-23T08:20:24.183Z,100829.59
2023-06-23T08:22:51.252Z,100813.00
2023-06-23T08:25:18.584Z,100820.94
2023-06-23T08:27:45.788Z,100804.13
2023-06-23T08:30:15.506Z,100811.88
2023-06-23T08:32:42.513Z,100809.75
2023-06-23T08:35:12.774Z,100817.78
2023-06-23T08:37:40.201Z,100803.00
2023-06-23T08:40:08.564Z,100812.00
2023-06-23T08:42:35.644Z,100824.19
2023-06-23T08:45:07.284Z,100829.84
2023-06-23T08:47:42.073Z,100817.50
2023-06-23T08:50:09.963Z,100809.16
2023-06-23T08:52:37.402Z,100810.69
2023-06-23T08:55:05.058Z,100819.69
2023-06-23T08:57:32.329Z,100827.38
2023-06-23T09:00:00.634Z,100818.31
2023-06-23T09:02:27.637Z,100820.88
2023-06-23T09:04:54.651Z,100820.75
2023-06-23T09:07:21.896Z,100829.13
2023-06-23T09:09:49.050Z,100841.16
2023-06-23T09:12:17.830Z,100839.50
2023-06-23T09:14:45.277Z,100827.75
2023-06-23T09:17:13.277Z,100831.06
2023-06-23T09:19:43.581Z,100840.03
2023-06-23T09:22:11.421Z,100840.69
2023-06-23T09:24:45.011Z,100843.25
2023-06-23T09:27:12.409Z,100835.59
2023-06-23T09:29:39.462Z,100836.69
2023-06-23T09:32:10.091Z,100837.91
2023-06-23T09:34:40.212Z,100844.06
2023-06-23T09:37:14.478Z,100839.66
2023-06-23T09:39:49.908Z,100841.81
2023-06-23T09:42:17.200Z,100854.94
2023-06-23T09:44:46.824Z,100847.38
2023-06-23T09:47:19.796Z,100851.44
2023-06-23T09:49:50.822Z,100859.03
2023-06-23T09:52:27.934Z,100857.50
2023-06-23T09:54:56.885Z,100843.16
2023-06-23T09:57:24.055Z,100842.44
2023-06-23T09:59:54.099Z,100827.06
2023-06-23T10:02:25.563Z,100845.09
2023-06-23T10:05:03.921Z,100841.53
2023-06-23T10:07:32.590Z,100847.69
2023-06-23T10:12:41.284Z,100859.84
2023-06-23T10:15:10.480Z,100863.84
2023-06-23T10:17:38.362Z,100862.31
2023-06-23T10:20:06.826Z,100861.50
2023-06-23T10:22:35.332Z,100862.00
2023-06-23T10:25:02.879Z,100845.94
2023-06-23T10:27:32.296Z,100848.00
2023-06-23T10:30:00.495Z,100843.03
2023-06-23T10:32:31.472Z,100841.38
2023-06-23T10:35:00.788Z,100837.84
2023-06-23T10:37:43.617Z,100820.19
2023-06-23T10:40:19.408Z,100811.50
2023-06-23T10:42:52.018Z,100812.94
2023-06-23T10:45:19.081Z,100824.44
2023-06-23T10:47:46.849Z,100839.53
2023-06-23T10:50:15.174Z,100847.78
2023-06-23T10:52:43.611Z,100844.75
2023-06-23T10:55:58.654Z,100843.97
2023-06-23T10:58:30.637Z,100843.22
2023-06-23T11:00:57.592Z,100832.34
2023-06-23T11:03:30.448Z,100824.16
2023-06-23T11:06:00.142Z,100830.38
2023-06-23T11:08:37.224Z,100816.97
2023-06-23T11:11:06.180Z,100816.41
2023-06-23T11:13:45.488Z,100821.59
2023-06-23T11:16:20.134Z,100830.94
2023-06-23T11:19:01.211Z,100831.78
2023-06-23T11:21:29.665Z,100838.41
2023-06-23T11:24:20.984Z,100849.06
2023-06-23T11:27:00.881Z,100856.72
2023-06-23T11:29:28.118Z,100860.38
2023-06-23T11:32:14.577Z,100859.94
2023-06-23T11:34:57.632Z,100847.66
2023-06-23T11:37:32.431Z,100834.91
2023-06-23T11:39:59.757Z,100815.97
2023-06-23T11:42:26.902Z,100811.16
2023-06-23T11:45:01.177Z,100819.88
2023-06-23T11:47:33.055Z,100820.28
2023-06-23T11:50:04.564Z,100831.41
2023-06-23T11:52:31.776Z,100837.25
2023-06-23T11:54:59.016Z,100822.66
2023-06-23T11:57:26.166Z,100820.34
2023-06-23T11:59:54.168Z,100820.53
2023-06-23T12:02:21.698Z,100823.19
2023-06-23T12:04:50.480Z,100810.38
2023-06-23T12:07:18.208Z,100806.47
2023-06-23T12:09:45.399Z,100803.69
2023-06-23T12:12:16.227Z,100811.03
2023-06-23T12:14:45.024Z,100813.88
2023-06-23T12:17:14.249Z,100819.09
2023-06-23T12:19:43.896Z,100823.19
2023-06-23T12:22:19.801Z,100832.22
2023-06-23T12:24:47.636Z,100833.63
2023-06-23T12:27:15.167Z,100826.13
2023-06-23T12:29:42.287Z,100812.56
2023-06-23T12:32:10.155Z,100809.41
2023-06-23T12:34:45.396Z,100807.47
2023-06-23T12:37:18.447Z,100807.09
2023-06-23T12:39:54.037Z,100800.06
2023-06-23T12:42:22.775Z,100786.09
2023-06-23T12:44:50.885Z,100785.63
2023-06-23T12:47:19.670Z,100779.53
2023-06-23T12:49:46.818Z,100795.06
2023-06-23T12:52:13.966Z,100802.59
2023-06-23T12:54:41.532Z,100802.75
2023-06-23T12:57:10.604Z,100800.91
2023-06-23T12:59:37.558Z,100795.81
2023-06-23T13:02:04.979Z,100800.66
2023-06-23T13:04:32.307Z,100789.75
2023-06-23T13:06:59.503Z,100790.50
2023-06-23T13:09:26.583Z,100789.81
2023-06-23T13:11:53.767Z,100789.06
2023-06-23T13:14:22.538Z,100799.44
2023-06-23T13:16:49.526Z,100806.38
2023-06-23T13:19:17.067Z,100795.41
2023-06-23T13:21:47.268Z,100799.84
2023-06-23T13:24:14.626Z,100804.81
2023-06-23T13:26:44.686Z,100813.09
2023-06-23T13:29:12.267Z,100801.31
2023-06-23T13:31:39.376Z,100785.78
2023-06-23T13:34:06.734Z,100785.13
2023-06-23T13:36:33.853Z,100788.84
2023-06-23T13:39:01.385Z,100777.28
2023-06-23T13:41:28.463Z,100786.84
2023-06-23T13:43:55.427Z,100793.56
2023-06-23T13:46:22.504Z,100796.78
2023-06-23T13:48:49.496Z,100790.00
2023-06-23T13:51:16.468Z,100777.78
2023-06-23T13:53:43.530Z,100778.44
2023-06-23T13:56:10.676Z,100776.84
2023-06-23T13:58:37.767Z,100764.44
2023-06-23T14:01:04.731Z,100767.75
2023-06-23T14:03:31.917Z,100775.56
2023-06-23T14:06:01.412Z,100784.34
2023-06-23T14:08:28.815Z,100782.25
2023-06-23T14:10:55.861Z,100789.81
2023-06-23T14:13:22.872Z,100796.47
2023-06-23T14:15:49.917Z,100791.50
2023-06-23T14:18:17.057Z,100791.94
2023-06-23T14:20:45.962Z,100791.22
2023-06-23T14:23:13.636Z,100786.91
2023-06-23T14:25:40.663Z,100777.16
2023-06-23T14:28:08.625Z,100791.66
2023-06-23T14:30:35.717Z,100786.09
2023-06-23T14:33:04.180Z,100779.97
2023-06-23T14:35:32.581Z,100787.06
2023-06-23T14:38:00.209Z,100781.59
2023-06-23T14:40:27.266Z,100783.94
2023-06-23T14:42:54.305Z,100773.34
2023-06-23T14:45:21.329Z,100785.94
2023-06-23T14:47:48.291Z,100771.66
2023-06-23T14:50:15.460Z,100789.34
2023-06-23T14:52:42.707Z,100788.00
2023-06-23T14:55:09.821Z,100789.16
2023-06-23T14:57:36.789Z,100794.72
2023-06-23T15:00:04.527Z,100800.44
2023-06-23T15:02:31.823Z,100802.94
2023-06-23T15:04:58.916Z,100808.72
2023-06-23T15:07:26.168Z,100812.13
2023-06-23T15:09:53.326Z,100814.22
2023-06-23T15:12:20.258Z,100824.69
2023-06-23T15:14:47.318Z,100825.47
2023-06-23T15:17:14.304Z,100817.88
2023-06-23T15:19:41.392Z,100824.13
2023-06-23T15:22:10.081Z,100817.84
2023-06-23T15:24:37.976Z,100805.84
2023-06-23T15:27:05.966Z,100818.13
2023-06-23T15:29:33.064Z,100809.19
2023-06-23T15:32:01.204Z,100801.59
2023-06-23T15:34:30.920Z,100809.00
2023-06-23T15:36:58.845Z,100815.91
2023-06-23T15:39:41.308Z,100823.16
2023-06-23T15:42:12.788Z,100812.13
2023-06-23T15:44:42.996Z,100809.53
2023-06-23T15:47:10.276Z,100814.34
2023-06-23T15:49:37.964Z,100817.00
2023-06-23T15:52:06.567Z,100814.09
2023-06-23T15:54:36.131Z,100814.38
2023-06-23T15:57:11.958Z,100808.16
2023-06-23T15:59:39.551Z,100810.41
2023-06-23T16:02:06.974Z,100814.91
2023-06-23T16:04:34.030Z,100814.97
2023-06-23T16:07:02.383Z,100812.53
2023-06-23T16:09:29.459Z,100820.88
2023-06-23T16:12:09.625Z,100836.75
2023-06-23T16:14:36.621Z,100837.56
2023-06-23T16:17:04.927Z,100826.91
2023-06-23T16:19:40.289Z,100839.09
2023-06-23T16:22:07.246Z,100820.69
2023-06-23T16:24:34.257Z,100807.19
2023-06-23T16:27:01.328Z,100808.00
2023-06-23T16:29:28.280Z,100796.53
2023-06-23T16:31:55.277Z,100795.19
2023-06-23T16:34:22.201Z,100795.84
2023-06-23T16:36:49.192Z,100793.16
2023-06-23T16:39:16.280Z,100801.38
2023-06-23T16:41:46.152Z,100792.59
2023-06-23T16:44:13.139Z,100793.91
2023-06-23T16:46:44.215Z,100795.84
2023-06-23T16:49:11.300Z,100795.22
2023-06-23T16:51:41.786Z,100807.16
2023-06-23T16:54:09.479Z,100811.63
2023-06-23T16:56:38.472Z,100811.44
2023-06-23T16:59:08.762Z,100813.88
2023-06-23T17:01:37.751Z,100805.66
2023-06-23T17:04:04.969Z,100811.25
2023-06-23T17:06:35.097Z,100812.25
2023-06-23T17:09:03.131Z,100818.56
2023-06-23T17:11:30.135Z,100822.25
2023-06-23T17:13:57.081Z,100813.28
2023-06-23T17:16:24.134Z,100819.94
2023-06-23T17:18:52.121Z,100817.22
2023-06-23T17:21:20.007Z,100823.53
2023-06-23T17:23:48.082Z,100827.75
2023-06-23T17:26:15.067Z,100832.16
2023-06-23T17:28:42.551Z,100835.91
2023-06-23T17:31:09.857Z,100842.22
2023-06-23T17:33:36.793Z,100837.06
2023-06-23T17:36:04.414Z,100845.03
2023-06-23T17:38:31.382Z,100852.91
2023-06-23T17:40:58.286Z,100850.00
2023-06-23T17:43:27.714Z,100856.16
2023-06-23T17:45:54.710Z,100863.94
2023-06-23T17:48:21.744Z,100861.47
2023-06-23T17:50:54.866Z,100859.78
2023-06-23T17:53:22.085Z,100857.44
2023-06-23T17:55:49.044Z,100861.47
2023-06-23T17:58:17.059Z,100868.31
2023-06-23T18:00:43.989Z,100879.00
2023-06-23T18:03:13.229Z,100884.63
2023-06-23T18:05:40.465Z,100882.69
2023-06-23T18:08:07.499Z,100886.59
2023-06-23T18:10:34.468Z,100897.94
2023-06-23T18:13:01.554Z,100894.00
2023-06-23T18:15:28.861Z,100897.56
2023-06-23T18:17:55.914Z,100901.19
2023-06-23T18:20:23.408Z,100901.69
2023-06-23T18:22:50.437Z,100896.19
2023-06-23T18:25:17.866Z,100891.16
2023-06-23T18:27:44.950Z,100872.44
2023-06-23T18:30:13.303Z,100877.47
2023-06-23T18:32:40.516Z,100877.91
2023-06-23T18:35:08.724Z,100877.19
2023-06-23T18:37:35.795Z,100873.97
2023-06-23T18:40:02.921Z,100873.41
2023-06-23T18:42:30.095Z,100883.28
2023-06-23T18:44:57.236Z,100889.22
2023-06-23T18:47:24.345Z,100889.50
2023-06-23T18:49:51.324Z,100911.00
2023-06-23T18:52:18.364Z,100927.03
2023-06-23T18:54:45.318Z,100929.28
2023-06-23T18:57:12.666Z,100945.97
2023-06-23T18:59:40.117Z,100933.56
2023-06-23T19:02:07.688Z,100938.84
2023-06-23T19:04:34.693Z,100940.56
2023-06-23T19:07:01.709Z,100936.28
2023-06-23T19:09:30.318Z,100937.91
2023-06-23T19:12:00.583Z,100940.13
2023-06-23T19:14:27.563Z,100948.31
2023-06-23T19:16:54.495Z,100952.00
2023-06-23T19:19:22.460Z,100951.03
2023-06-23T19:21:49.436Z,100962.34
2023-06-23T19:24:16.536Z,100968.16
2023-06-23T19:26:44.901Z,100974.13
2023-06-23T19:29:12.016Z,100971.09
2023-06-23T19:31:39.006Z,100968.88
2023-06-23T19:34:07.497Z,100976.44
2023-06-23T19:36:34.486Z,100968.84
2023-06-23T19:39:01.560Z,100987.03
2023-06-23T19:41:30.255Z,100984.81
2023-06-23T19:43:57.444Z,100998.66
2023-06-23T19:46:24.702Z,100991.13
2023-06-23T19:48:51.975Z,101004.31
2023-06-23T19:51:19.184Z,100996.94
2023-06-23T19:53:46.103Z,101000.66
2023-06-23T19:56:13.161Z,101003.88
2023-06-23T19:58:40.185Z,101009.78
2023-06-23T20:01:07.331Z,101019.31
2023-06-23T20:03:34.508Z,101018.06
2023-06-23T20:06:01.614Z,101025.28
2023-06-23T20:08:29.761Z,101026.28
2023-06-23T20:10:56.707Z,101020.81
2023-06-23T20:13:23.633Z,101019.66
2023-06-23T20:15:52.451Z,101026.00
2023-06-23T20:18:19.598Z,101028.66
2023-06-23T20:20:52.645Z,101037.00
2023-06-23T20:23:19.626Z,101047.50
2023-06-23T20:25:46.626Z,101047.91
2023-06-23T20:28:13.713Z,101040.88
2023-06-23T20:30:40.693Z,101042.31
2023-06-23T20:33:07.742Z,101040.88
2023-06-23T20:35:34.829Z,101048.94
2023-06-23T20:38:02.041Z,101066.78
2023-06-23T20:40:29.068Z,101055.00
2023-06-23T20:42:56.001Z,101062.75
2023-06-23T20:45:24.576Z,101064.44
2023-06-23T20:47:52.730Z,101059.81
2023-06-23T20:50:19.932Z,101056.06
2023-06-23T20:52:46.905Z,101061.69
2023-06-23T20:55:13.891Z,101069.16
2023-06-23T20:57:41.062Z,101074.84
2023-06-23T21:00:09.423Z,101065.34
2023-06-23T21:02:37.894Z,101072.88
2023-06-23T21:05:05.226Z,101078.81
2023-06-23T21:07:32.212Z,101079.56
2023-06-23T21:09:59.190Z,101087.53
2023-06-23T21:12:28.211Z,101086.84
2023-06-23T21:15:04.491Z,101089.03
2023-06-23T21:17:33.365Z,101099.41
2023-06-23T21:20:00.491Z,101097.53
2023-06-23T21:22:27.541Z,101094.34
2023-06-23T21:24:54.604Z,101083.91
2023-06-23T21:27:21.697Z,101080.91
2023-06-23T21:29:49.726Z,101080.38
2023-06-23T21:32:19.831Z,101081.63
2023-06-23T21:34:47.524Z,101095.28
2023-06-23T21:37:15.616Z,101092.47
2023-06-23T21:39:42.818Z,101086.09
2023-06-23T21:42:09.992Z,101077.91
2023-06-23T21:44:37.167Z,101067.47
2023-06-23T21:47:04.695Z,101063.56
2023-06-23T21:49:31.848Z,101063.91
2023-06-23T21:52:00.188Z,101065.53
2023-06-23T21:54:27.371Z,101056.28
2023-06-23T21:56:55.882Z,101061.38
2023-06-23T21:59:23.114Z,101079.16
2023-06-23T22:01:50.213Z,101078.19
2023-06-23T22:04:17.238Z,101078.72
2023-06-23T22:06:44.491Z,101082.28
2023-06-23T22:09:11.603Z,101076.91
2023-06-23T22:11:38.662Z,101076.13
2023-06-23T22:14:05.648Z,101071.13
2023-06-23T22:16:32.645Z,101076.13
2023-06-23T22:18:59.835Z,101074.34
2023-06-23T22:21:26.938Z,101076.84
2023-06-23T22:23:54.020Z,101078.22
2023-06-23T22:26:21.169Z,101081.84
2023-06-23T22:28:48.264Z,101074.13
2023-06-23T22:31:16.637Z,101084.94
2023-06-23T22:33:43.710Z,101082.91
2023-06-23T22:36:10.831Z,101086.50
2023-06-23T22:38:38.012Z,101088.78
2023-06-23T22:41:05.298Z,101095.59
2023-06-23T22:43:32.466Z,101109.75
2023-06-23T22:46:00.515Z,101101.34
2023-06-23T22:48:28.961Z,101110.75
2023-06-23T22:50:55.914Z,101110.94
2023-06-23T22:53:22.919Z,101111.56
2023-06-23T22:55:51.110Z,101109.41
2023-06-23T22:58:18.137Z,101113.59
2023-06-23T23:00:45.169Z,101116.31
2023-06-23T23:03:12.178Z,101110.69
2023-06-23T23:05:39.705Z,101111.69
2023-06-23T23:08:07.983Z,101108.78
2023-06-23T23:10:35.180Z,101101.44
2023-06-23T23:13:02.438Z,101109.31
2023-06-23T23:15:29.350Z,101111.16
2023-06-23T23:17:56.466Z,101116.44
2023-06-23T23:20:23.442Z,101118.41
2023-06-23T23:22:51.061Z,101120.41
2023-06-23T23:25:21.887Z,101110.91
2023-06-23T23:27:53.167Z,101116.66
2023-06-23T23:30:20.478Z,101117.97
2023-06-23T23:32:52.854Z,101123.59
2023-06-23T23:35:21.694Z,101123.91
2023-06-23T23:37:48.688Z,101122.94
2023-06-23T23:40:15.942Z,101116.53
2023-06-23T23:42:45.574Z,101118.84
2023-06-23T23:45:14.984Z,101119.66
2023-06-23T23:47:42.470Z,101111.13
2023-06-23T23:50:10.239Z,101107.31
2023-06-23T23:52:37.240Z,101110.47
2023-06-23T23:55:04.529Z,101104.38
2023-06-23T23:57:32.666Z,101101.72
2023-06-23T23:59:59.964Z,101097.63
